Time,TemperatureF,DewpointF,PressureIn,WindDirection,WindDirectionDegrees,WindSpeedMPH,WindSpeedGustMPH,Humidity,HourlyPrecipIn,Conditions,Clouds,dailyrainin,SoftwareType,DateUTC
2013-07-30 00:03:00,65.0,63.0,-100.00,North,-999,-999.0,-999.0,94,0.00,,,1.29,,2013-07-30 04:03:00,
2013-07-30 00:13:00,65.0,63.0,-100.00,North,-999,-999.0,-999.0,94,0.00,,,1.29,,2013-07-30 04:13:00,
2013-07-30 00:23:00,65.0,63.0,-100.00,North,-999,-999.0,-999.0,94,0.00,,,1.29,,2013-07-30 04:23:00,
2013-07-30 00:33:00,65.0,63.0,-100.00,North,-999,-999.0,-999.0,94,0.00,,,1.29,,2013-07-30 04:33:00,
2013-07-30 00:43:00,65.0,63.0,-100.00,North,-999,-999.0,-999.0,94,0.00,,,1.29,,2013-07-30 04:43:00,
2013-07-30 00:45:00,65.0,63.0,-100.00,North,-999,0.0,-999.0,94,0.00,,,1.29,,2013-07-30 04:45:00,
2013-07-30 01:03:00,65.0,63.0,-100.00,North,-999,0.0,-999.0,94,0.00,,,1.29,,2013-07-30 05:03:00,
2013-07-30 01:13:00,65.0,63.0,-100.00,North,-999,0.0,-999.0,94,0.00,,,1.29,,2013-07-30 05:13:00,
2013-07-30 01:23:00,65.0,63.0,-100.00,North,-999,0.0,-999.0,94,0.00,,,1.29,,2013-07-30 05:23:00,
2013-07-30 01:33:00,65.0,63.0,-100.00,North,-999,0.0,-999.0,94,0.00,,,1.29,,2013-07-30 05:33:00,
2013-07-30 02:03:00,65.0,63.0,-100.00,North,2,0.0,-999.0,94,0.00,,,1.29,,2013-07-30 06:03:00,
2013-07-30 02:13:00,65.0,63.0,-100.00,North,2,0.0,-999.0,94,0.00,,,1.29,,2013-07-30 06:13:00,
2013-07-30 02:23:00,65.0,63.0,-100.00,North,2,0.0,-999.0,94,0.00,,,1.29,,2013-07-30 06:23:00,
2013-07-30 02:33:00,65.0,63.0,-100.00,North,2,0.0,-999.0,94,0.00,,,1.29,,2013-07-30 06:33:00,
2013-07-30 02:43:00,65.0,63.0,-100.00,North,2,0.0,-999.0,94,0.00,,,1.29,,2013-07-30 06:43:00,
2013-07-30 03:03:00,65.0,63.0,-100.00,North,-999,-999.0,-999.0,94,0.02,,,1.31,,2013-07-30 07:03:00,
2013-07-30 03:13:00,65.0,63.0,-100.00,North,-999,-999.0,-999.0,94,0.02,,,1.31,,2013-07-30 07:13:00,
2013-07-30 03:23:00,65.0,63.0,-100.00,North,-999,-999.0,-999.0,94,0.02,,,1.31,,2013-07-30 07:23:00,
2013-07-30 03:33:00,65.0,63.0,-100.00,North,-999,-999.0,-999.0,94,0.02,,,1.31,,2013-07-30 07:33:00,
2013-07-30 03:43:00,65.0,63.0,-100.00,North,-999,-999.0,-999.0,94,0.02,,,1.31,,2013-07-30 07:43:00,
2013-07-30 04:03:00,63.0,61.0,-100.00,North,1,0.0,-999.0,93,0.00,,,1.31,,2013-07-30 08:03:00,
2013-07-30 04:13:00,63.0,61.0,-100.00,North,1,0.0,-999.0,93,0.00,,,1.31,,2013-07-30 08:13:00,
2013-07-30 04:23:00,63.0,61.0,-100.00,North,1,0.0,-999.0,93,0.00,,,1.31,,2013-07-30 08:23:00,
2013-07-30 04:33:00,63.0,61.0,-100.00,North,1,0.0,-999.0,93,0.00,,,1.31,,2013-07-30 08:33:00,
2013-07-30 04:43:00,63.0,61.0,-100.00,North,1,0.0,-999.0,93,0.00,,,1.31,,2013-07-30 08:43:00,
2013-07-30 05:03:00,62.0,60.0,-100.00,North,-999,0.0,-999.0,93,0.00,,,1.31,,2013-07-30 09:03:00,
2013-07-30 05:13:00,62.0,60.0,-100.00,North,-999,0.0,-999.0,93,0.00,,,1.31,,2013-07-30 09:13:00,
2013-07-30 05:23:00,62.0,60.0,-100.00,North,-999,0.0,-999.0,93,0.00,,,1.31,,2013-07-30 09:23:00,
2013-07-30 05:33:00,62.0,60.0,-100.00,North,-999,0.0,-999.0,93,0.00,,,1.31,,2013-07-30 09:33:00,
2013-07-30 05:43:00,62.0,60.0,-100.00,North,-999,0.0,-999.0,93,0.00,,,1.31,,2013-07-30 09:43:00,
2013-07-30 06:23:00,62.0,60.0,-100.00,North,-999,-999.0,-999.0,92,0.00,,,1.31,,2013-07-30 10:23:00,
2013-07-30 06:33:00,62.0,60.0,-100.00,North,-999,-999.0,-999.0,92,0.00,,,1.31,,2013-07-30 10:33:00,
2013-07-30 06:44:00,62.0,60.0,-100.00,North,-999,-999.0,-999.0,92,0.00,,,1.31,,2013-07-30 10:44:00,
2013-07-30 07:02:00,63.0,60.0,-100.00,North,-999,0.0,-999.0,91,0.00,,,1.31,,2013-07-30 11:02:00,
2013-07-30 07:12:00,63.0,60.0,-100.00,North,-999,0.0,-999.0,91,0.00,,,1.31,,2013-07-30 11:12:00,
2013-07-30 07:22:00,63.0,60.0,-100.00,North,-999,0.0,-999.0,91,0.00,,,1.31,,2013-07-30 11:22:00,
2013-07-30 07:33:00,63.0,60.0,-100.00,North,-999,0.0,-999.0,91,0.00,,,1.31,,2013-07-30 11:33:00,
2013-07-30 07:43:00,63.0,60.0,-100.00,North,-999,0.0,-999.0,91,0.00,,,1.31,,2013-07-30 11:43:00,
2013-07-30 08:12:00,65.0,60.0,-100.00,North,-999,0.0,-999.0,83,0.00,,,-99.99,,2013-07-30 12:12:00,
2013-07-30 08:22:00,65.0,60.0,-100.00,North,-999,0.0,-999.0,83,0.00,,,-99.99,,2013-07-30 12:22:00,
2013-07-30 08:33:00,65.0,60.0,-100.00,North,-999,0.0,-999.0,83,0.00,,,-99.99,,2013-07-30 12:33:00,
2013-07-30 08:42:00,65.0,60.0,-100.00,North,-999,0.0,-999.0,83,0.00,,,-99.99,,2013-07-30 12:42:00,
2013-07-30 09:12:00,67.0,58.0,-100.00,North,-999,-999.0,-999.0,72,0.00,,,1.31,,2013-07-30 13:12:00,
2013-07-30 09:22:00,67.0,58.0,-100.00,North,-999,-999.0,-999.0,72,0.00,,,1.31,,2013-07-30 13:22:00,
2013-07-30 09:33:00,67.0,58.0,-100.00,North,-999,-999.0,-999.0,72,0.00,,,1.31,,2013-07-30 13:33:00,
2013-07-30 09:43:00,67.0,58.0,-100.00,North,-999,-999.0,-999.0,72,0.00,,,1.31,,2013-07-30 13:43:00,
2013-07-30 10:12:00,70.0,57.0,-100.00,North,-999,0.0,-999.0,64,0.00,,,1.31,,2013-07-30 14:12:00,
2013-07-30 10:22:00,70.0,57.0,-100.00,North,-999,0.0,-999.0,64,0.00,,,1.31,,2013-07-30 14:22:00,
2013-07-30 10:33:00,70.0,57.0,-100.00,North,-999,0.0,-999.0,64,0.00,,,1.31,,2013-07-30 14:33:00,
2013-07-30 10:43:00,70.0,57.0,-100.00,North,-999,0.0,-999.0,64,0.00,,,1.31,,2013-07-30 14:43:00,
2013-07-30 11:12:00,72.0,55.0,-100.00,North,-999,0.0,-999.0,55,0.00,,,1.31,,2013-07-30 15:12:00,
2013-07-30 11:23:00,72.0,55.0,-100.00,North,-999,0.0,-999.0,55,0.00,,,1.31,,2013-07-30 15:23:00,
2013-07-30 11:30:00,73.0,-99.9,-100.00,North,-999,-999.0,-999.0,50,0.00,,,1.31,,2013-07-30 15:30:00,
2013-07-30 11:33:00,72.0,55.0,-100.00,North,-999,0.0,-999.0,55,0.00,,,1.31,,2013-07-30 15:33:00,
2013-07-30 11:43:00,72.0,55.0,-100.00,North,-999,0.0,-999.0,55,0.00,,,1.31,,2013-07-30 15:43:00,
2013-07-30 12:12:00,73.0,53.0,-100.00,North,-999,-999.0,-999.0,50,0.00,,,1.31,,2013-07-30 16:12:00,
2013-07-30 12:23:00,73.0,-99.9,-100.00,North,-999,-999.0,-999.0,50,0.00,,,1.31,,2013-07-30 16:23:00,
2013-07-30 13:13:00,77.0,-99.9,-100.00,North,-999,0.0,-999.0,40,-99.99,,,1.31,,2013-07-30 17:13:00,
2013-07-30 13:22:00,77.0,51.0,-100.00,North,-999,0.0,-999.0,40,-99.99,,,1.31,,2013-07-30 17:22:00,
2013-07-30 13:33:00,77.0,-99.9,-100.00,North,-999,0.0,-999.0,40,-99.99,,,1.31,,2013-07-30 17:33:00,
2013-07-30 13:43:00,77.0,-99.9,-100.00,North,-999,0.0,-999.0,40,-99.99,,,1.31,,2013-07-30 17:43:00,
2013-07-30 14:12:00,80.0,51.0,-100.00,North,-999,-999.0,-999.0,36,0.00,,,-99.99,,2013-07-30 18:12:00,
2013-07-30 14:23:00,80.0,51.0,-100.00,North,-999,-999.0,-999.0,36,0.00,,,-99.99,,2013-07-30 18:23:00,
2013-07-30 14:32:00,80.0,51.0,-100.00,North,-999,-999.0,-999.0,36,0.00,,,-99.99,,2013-07-30 18:32:00,
2013-07-30 14:43:00,80.0,51.0,-100.00,North,-999,-999.0,-999.0,36,0.00,,,-99.99,,2013-07-30 18:43:00,
2013-07-30 15:23:00,80.0,-99.9,-100.00,North,-999,0.0,-999.0,31,0.00,,,-99.99,,2013-07-30 19:23:00,
2013-07-30 15:33:00,80.0,-99.9,-100.00,North,-999,0.0,-999.0,31,0.00,,,-99.99,,2013-07-30 19:33:00,
2013-07-30 15:44:00,80.0,-99.9,-100.00,North,-999,0.0,-999.0,31,0.00,,,-99.99,,2013-07-30 19:44:00,
2013-07-30 19:02:00,81.0,51.0,-100.00,North,-999,0.0,-999.0,36,-99.99,,,0.13,,2013-07-30 23:02:00,
2013-07-30 19:13:00,81.0,51.0,-100.00,North,-999,0.0,-999.0,36,-99.99,,,0.13,,2013-07-30 23:13:00,
2013-07-30 19:23:00,81.0,51.0,-100.00,North,-999,0.0,-999.0,36,-99.99,,,0.13,,2013-07-30 23:23:00,
2013-07-30 21:02:00,70.0,56.0,-100.00,North,-999,0.0,-999.0,60,-99.99,,,0.02,,2013-07-31 01:02:00,
2013-07-30 21:12:00,70.0,56.0,-100.00,North,-999,0.0,-999.0,60,-99.99,,,0.02,,2013-07-31 01:12:00,
2013-07-30 21:22:00,70.0,56.0,-100.00,North,-999,0.0,-999.0,60,-99.99,,,0.02,,2013-07-31 01:22:00,
2013-07-30 21:32:00,70.0,56.0,-100.00,North,-999,0.0,-999.0,60,-99.99,,,0.02,,2013-07-31 01:32:00,
2013-07-30 21:43:00,70.0,56.0,-100.00,North,-999,0.0,-999.0,60,-99.99,,,0.02,,2013-07-31 01:43:00,
2013-07-30 22:12:00,67.0,57.0,-100.00,North,-999,-999.0,-999.0,70,0.00,,,0.02,,2013-07-31 02:12:00,
2013-07-30 22:22:00,67.0,57.0,-100.00,North,-999,-999.0,-999.0,70,0.00,,,0.02,,2013-07-31 02:22:00,
2013-07-30 22:32:00,67.0,57.0,-100.00,North,-999,-999.0,-999.0,70,0.00,,,0.02,,2013-07-31 02:32:00,
2013-07-30 22:43:00,67.0,57.0,-100.00,North,-999,-999.0,-999.0,70,0.00,,,0.02,,2013-07-31 02:43:00,
2013-07-30 23:12:00,66.0,58.0,-100.00,North,-999,0.0,-999.0,75,0.00,,,0.02,,2013-07-31 03:12:00,
2013-07-30 23:22:00,66.0,58.0,-100.00,North,-999,0.0,-999.0,75,0.00,,,0.02,,2013-07-31 03:22:00,
2013-07-30 23:32:00,66.0,58.0,-100.00,North,-999,0.0,-999.0,75,0.00,,,0.02,,2013-07-31 03:32:00,
2013-07-30 23:42:00,66.0,58.0,-100.00,North,-999,0.0,-999.0,75,0.00,,,0.02,,2013-07-31 03:42:00,